Time;durP1;ratioP1;P1;durP2;ratioP2;P2;SDS_P1;SDS_P2;PMS_P1;PMS_P2;Temp;Humidity;BMP_temperature;BMP_pressure;BME280_temperature;BME280_humidity;BME280_pressure;Samples;Min_cycle;Max_cycle;Signal;HPM_P1;HPM_P2
2019/09/30 00:00:41;;;;;;;2.4;2;;;;;;;19.07;48.63965;94223.94;;;;
2019/09/30 00:01:43;;;;;;;2.4;2;;;;;;;19.07;48.63965;94223.94;;;;
2019/09/30 00:02:44;;;;;;;4.1;1.8;;;;;;;19.07;48.77148;94219.83;;;;
2019/09/30 00:03:45;;;;;;;4.1;1.8;;;;;;;19.07;48.77148;94219.83;;;;
2019/09/30 00:04:47;;;;;;;4.1;1.8;;;;;;;19.07;48.77148;94219.83;;;;
2019/09/30 00:05:48;;;;;;;2.6;2;;;;;;;19.11;48.8418;94237.8;;;;
2019/09/30 00:06:49;;;;;;;2.6;2;;;;;;;19.11;48.8418;94237.8;;;;
2019/09/30 00:07:50;;;;;;;2.55;1.9;;;;;;;19.12;48.9082;94224.38;;;;
2019/09/30 00:08:51;;;;;;;2.55;1.9;;;;;;;19.12;48.9082;94224.38;;;;
2019/09/30 00:09:53;;;;;;;2.55;1.9;;;;;;;19.12;48.9082;94224.38;;;;
2019/09/30 00:10:54;;;;;;;3.85;1.9;;;;;;;19.13;49.15039;94226.93;;;;
2019/09/30 00:11:55;;;;;;;3.85;1.9;;;;;;;19.13;49.15039;94226.93;;;;
2019/09/30 00:12:56;;;;;;;3.25;2.05;;;;;;;19.13;49.29492;94230.9;;;;
2019/09/30 00:13:58;;;;;;;3.25;2.05;;;;;;;19.13;49.29492;94230.9;;;;
2019/09/30 00:14:59;;;;;;;3.25;2.05;;;;;;;19.13;49.29492;94230.9;;;;
2019/09/30 00:16:00;;;;;;;4.05;2.1;;;;;;;19.13;49.44824;94233.63;;;;
2019/09/30 00:17:02;;;;;;;4.05;2.1;;;;;;;19.13;49.44824;94233.63;;;;
2019/09/30 00:18:03;;;;;;;4.05;2.1;;;;;;;19.13;49.44824;94233.63;;;;
2019/09/30 00:19:05;;;;;;;4.55;2.05;;;;;;;19.13;49.63574;94245.95;;;;
2019/09/30 00:20:06;;;;;;;4.55;2.05;;;;;;;19.13;49.63574;94245.95;;;;
2019/09/30 00:21:08;;;;;;;3.9;2;;;;;;;19.13;49.9209;94246.91;;;;
2019/09/30 00:22:09;;;;;;;3.9;2;;;;;;;19.13;49.9209;94246.91;;;;
2019/09/30 00:23:11;;;;;;;3.9;2;;;;;;;19.13;49.9209;94246.91;;;;
2019/09/30 00:24:12;;;;;;;2.25;2;;;;;;;19.12;50.08496;94239.79;;;;
2019/09/30 00:25:13;;;;;;;2.25;2;;;;;;;19.12;50.08496;94239.79;;;;
2019/09/30 00:26:15;;;;;;;3.9;2;;;;;;;19.1;50.48828;94249.88;;;;
2019/09/30 00:27:16;;;;;;;3.9;2;;;;;;;19.1;50.48828;94249.88;;;;
2019/09/30 00:28:17;;;;;;;3.9;2;;;;;;;19.1;50.48828;94249.88;;;;
2019/09/30 00:29:19;;;;;;;3.65;1.9;;;;;;;19.08;50.65137;94245.28;;;;
2019/09/30 00:30:20;;;;;;;3.65;1.9;;;;;;;19.08;50.65137;94245.28;;;;
2019/09/30 00:31:32;;;;;;;3.6;2;;;;;;;19.06;50.92383;94247.11;;;;
2019/09/30 00:32:34;;;;;;;3.6;2;;;;;;;19.06;50.92383;94247.11;;;;
2019/09/30 00:33:35;;;;;;;3.6;2;;;;;;;19.06;50.92383;94247.11;;;;
2019/09/30 00:34:36;;;;;;;5.2;2.2;;;;;;;19.03;51.15137;94248.56;;;;
2019/09/30 00:35:37;;;;;;;5.2;2.2;;;;;;;19.03;51.15137;94248.56;;;;
2019/09/30 00:36:39;;;;;;;4.6;2.1;;;;;;;19.01;51.41309;94233.97;;;;
2019/09/30 00:37:40;;;;;;;4.6;2.1;;;;;;;19.01;51.41309;94233.97;;;;
2019/09/30 00:38:41;;;;;;;4.6;2.1;;;;;;;19.01;51.41309;94233.97;;;;
2019/09/30 00:39:42;;;;;;;2.699999;2;;;;;;;18.98;51.5957;94254.14;;;;
2019/09/30 00:40:44;;;;;;;2.699999;2;;;;;;;18.98;51.5957;94254.14;;;;
2019/09/30 00:41:45;;;;;;;2.699999;2;;;;;;;18.98;51.5957;94254.14;;;;
2019/09/30 00:42:46;;;;;;;2.75;2;;;;;;;18.95;51.90039;94256.55;;;;
2019/09/30 00:43:47;;;;;;;2.75;2;;;;;;;18.95;51.90039;94256.55;;;;
2019/09/30 00:44:49;;;;;;;3.75;2.2;;;;;;;18.94;52.20605;94264.48;;;;
2019/09/30 00:45:50;;;;;;;3.75;2.2;;;;;;;18.94;52.20605;94264.48;;;;
2019/09/30 00:46:53;;;;;;;3.75;2.2;;;;;;;18.94;52.20605;94264.48;;;;
2019/09/30 00:47:54;;;;;;;5.349999;2.3;;;;;;;18.94;52.45898;94273.69;;;;
2019/09/30 00:48:56;;;;;;;5.349999;2.3;;;;;;;18.94;52.45898;94273.69;;;;
2019/09/30 00:49:57;;;;;;;7.5;2.4;;;;;;;18.95;52.61426;94246.15;;;;
2019/09/30 00:50:58;;;;;;;7.5;2.4;;;;;;;18.95;52.61426;94246.15;;;;
2019/09/30 00:52:05;;;;;;;7.5;2.4;;;;;;;18.95;52.61426;94246.15;;;;
2019/09/30 00:53:07;;;;;;;5.95;2.5;;;;;;;18.94;52.90918;94249.06;;;;
2019/09/30 00:54:08;;;;;;;5.95;2.5;;;;;;;18.94;52.90918;94249.06;;;;
2019/09/30 00:55:09;;;;;;;7.050002;2.299999;;;;;;;18.93;53.20313;94249.2;;;;
2019/09/30 00:56:11;;;;;;;7.050002;2.299999;;;;;;;18.93;53.20313;94249.2;;;;
2019/09/30 00:57:13;;;;;;;7.050002;2.299999;;;;;;;18.93;53.20313;94249.2;;;;
2019/09/30 00:58:14;;;;;;;5;2.4;;;;;;;18.92;53.58691;94244.47;;;;
2019/09/30 00:59:15;;;;;;;5;2.4;;;;;;;18.92;53.58691;94244.47;;;;
2019/09/30 01:00:17;;;;;;;5;2.4;;;;;;;18.92;53.58691;94244.47;;;;
2019/09/30 01:01:19;;;;;;;5;2.4;;;;;;;18.92;53.58691;94244.47;;;;
2019/09/30 01:02:21;;;;;;;5;2.4;;;;;;;18.92;53.58691;94244.47;;;;
2019/09/30 01:03:22;;;;;;;5;2.4;;;;;;;18.92;53.58691;94244.47;;;;
2019/09/30 01:04:24;;;;;;;5;2.4;;;;;;;18.92;53.58691;94244.47;;;;
2019/09/30 01:05:25;;;;;;;5;2.4;;;;;;;18.92;53.58691;94244.47;;;;
2019/09/30 01:06:26;;;;;;;5;2.4;;;;;;;18.92;53.58691;94244.47;;;;
2019/09/30 01:07:28;;;;;;;5;2.4;;;;;;;18.92;53.58691;94244.47;;;;
2019/09/30 01:08:29;;;;;;;6.700001;2.2;;;;;;;18.57;53.88379;94267.61;;;;
2019/09/30 01:09:30;;;;;;;6.700001;2.2;;;;;;;18.57;53.88379;94267.61;;;;
2019/09/30 01:10:32;;;;;;;6.700001;2.2;;;;;;;18.57;53.88379;94267.61;;;;
2019/09/30 01:11:33;;;;;;;6.3;2.5;;;;;;;18.55;54.91113;94267.66;;;;
2019/09/30 01:12:34;;;;;;;6.3;2.5;;;;;;;18.55;54.91113;94267.66;;;;
2019/09/30 01:13:36;;;;;;;6.55;2.45;;;;;;;18.58;55.38672;94268.44;;;;
2019/09/30 01:14:37;;;;;;;6.55;2.45;;;;;;;18.58;55.38672;94268.44;;;;
2019/09/30 01:15:38;;;;;;;6.55;2.45;;;;;;;18.58;55.38672;94268.44;;;;
2019/09/30 01:16:40;;;;;;;5.500001;2.55;;;;;;;18.59;55.85938;94265.38;;;;
2019/09/30 01:17:41;;;;;;;5.500001;2.55;;;;;;;18.59;55.85938;94265.38;;;;
2019/09/30 01:18:42;;;;;;;5.500001;2.55;;;;;;;18.59;55.85938;94265.38;;;;
2019/09/30 01:19:44;;;;;;;5.500001;2.55;;;;;;;18.59;55.85938;94265.38;;;;
2019/09/30 01:20:45;;;;;;;5.500001;2.55;;;;;;;18.59;55.85938;94265.38;;;;
2019/09/30 01:21:48;;;;;;;5.500001;2.55;;;;;;;18.59;55.85938;94265.38;;;;
2019/09/30 01:22:49;;;;;;;5.500001;2.55;;;;;;;18.59;55.85938;94265.38;;;;
2019/09/30 01:23:51;;;;;;;5.500001;2.55;;;;;;;18.59;55.85938;94265.38;;;;
2019/09/30 01:24:52;;;;;;;5.500001;2.55;;;;;;;18.59;55.85938;94265.38;;;;
2019/09/30 01:25:54;;;;;;;5.500001;2.55;;;;;;;18.59;55.85938;94265.38;;;;
2019/09/30 01:26:55;;;;;;;5.4;2.3;;;;;;;18.25;55.76172;94265.07;;;;
2019/09/30 01:27:57;;;;;;;5.4;2.3;;;;;;;18.25;55.76172;94265.07;;;;
2019/09/30 01:28:58;;;;;;;5.4;2.3;;;;;;;18.25;55.76172;94265.07;;;;
2019/09/30 01:29:59;;;;;;;5;2.55;;;;;;;18.23;56.77832;94246.8;;;;
2019/09/30 01:31:01;;;;;;;5;2.55;;;;;;;18.23;56.77832;94246.8;;;;
2019/09/30 01:32:03;;;;;;;5;2.55;;;;;;;18.23;56.77832;94246.8;;;;
2019/09/30 01:33:04;;;;;;;5;2.55;;;;;;;18.23;56.77832;94246.8;;;;
2019/09/30 01:34:06;;;;;;;5;2.55;;;;;;;18.23;56.77832;94246.8;;;;
2019/09/30 01:35:07;;;;;;;5;2.55;;;;;;;18.23;56.77832;94246.8;;;;
2019/09/30 01:36:10;;;;;;;5;2.55;;;;;;;18.23;56.77832;94246.8;;;;
2019/09/30 01:37:11;;;;;;;5;2.55;;;;;;;18.23;56.77832;94246.8;;;;
2019/09/30 01:38:13;;;;;;;5;2.55;;;;;;;18.23;56.77832;94246.8;;;;
2019/09/30 01:39:15;;;;;;;5;2.55;;;;;;;18.23;56.77832;94246.8;;;;
2019/09/30 01:40:16;;;;;;;3.8;2.4;;;;;;;18;57.19629;94258.81;;;;
2019/09/30 01:43:18;;;;;;;4.75;2.45;;;;;;;18;58.25684;94262.91;;;;
2019/09/30 01:44:19;;;;;;;4.75;2.45;;;;;;;18;58.25684;94262.91;;;;
2019/09/30 01:45:21;;;;;;;4.75;2.45;;;;;;;18;58.25684;94262.91;;;;
2019/09/30 01:46:23;;;;;;;4.75;2.45;;;;;;;18;58.25684;94262.91;;;;
2019/09/30 01:47:24;;;;;;;4.75;2.45;;;;;;;18;58.25684;94262.91;;;;
2019/09/30 01:48:26;;;;;;;4.75;2.45;;;;;;;18;58.25684;94262.91;;;;
2019/09/30 01:49:27;;;;;;;4.75;2.45;;;;;;;18;58.25684;94262.91;;;;
2019/09/30 01:50:28;;;;;;;4.75;2.45;;;;;;;18;58.25684;94262.91;;;;
2019/09/30 01:51:30;;;;;;;4.75;2.45;;;;;;;18;58.25684;94262.91;;;;
2019/09/30 01:52:31;;;;;;;4.75;2.45;;;;;;;18;58.25684;94262.91;;;;
2019/09/30 01:53:32;;;;;;;7.25;2.4;;;;;;;17.77;58.50098;94259.45;;;;
2019/09/30 01:54:34;;;;;;;7.25;2.4;;;;;;;17.77;58.50098;94259.45;;;;
2019/09/30 01:55:35;;;;;;;7.25;2.4;;;;;;;17.77;58.50098;94259.45;;;;
2019/09/30 01:56:39;;;;;;;5.7;2.4;;;;;;;17.78;59.85742;94256.96;;;;
2019/09/30 01:57:40;;;;;;;5.7;2.4;;;;;;;17.78;59.85742;94256.96;;;;
2019/09/30 01:58:41;;;;;;;5.7;2.4;;;;;;;17.78;59.85742;94256.96;;;;
2019/09/30 01:59:43;;;;;;;5.7;2.4;;;;;;;17.78;59.85742;94256.96;;;;
2019/09/30 02:00:55;;;;;;;5.7;2.4;;;;;;;17.78;59.85742;94256.96;;;;
2019/09/30 02:02:05;;;;;;;5.7;2.4;;;;;;;17.78;59.85742;94256.96;;;;
2019/09/30 02:03:08;;;;;;;5.7;2.4;;;;;;;17.78;59.85742;94256.96;;;;
2019/09/30 02:04:10;;;;;;;5.7;2.4;;;;;;;17.78;59.85742;94256.96;;;;
2019/09/30 02:05:12;;;;;;;5.7;2.4;;;;;;;17.78;59.85742;94256.96;;;;
2019/09/30 02:06:15;;;;;;;5.7;2.4;;;;;;;17.78;59.85742;94256.96;;;;
2019/09/30 02:07:16;;;;;;;4.8;2.35;;;;;;;17.64;59.85059;94268.73;;;;
2019/09/30 02:08:18;;;;;;;4.8;2.35;;;;;;;17.64;59.85059;94268.73;;;;
2019/09/30 02:09:19;;;;;;;4.85;2.299999;;;;;;;17.67;61.49219;94257.33;;;;
2019/09/30 02:10:21;;;;;;;4.85;2.299999;;;;;;;17.67;61.49219;94257.33;;;;
2019/09/30 02:11:23;;;;;;;4.85;2.299999;;;;;;;17.67;61.49219;94257.33;;;;
2019/09/30 02:12:25;;;;;;;4.85;2.299999;;;;;;;17.67;61.49219;94257.33;;;;
2019/09/30 02:13:26;;;;;;;4.85;2.299999;;;;;;;17.67;61.49219;94257.33;;;;
2019/09/30 02:14:27;;;;;;;4.85;2.299999;;;;;;;17.67;61.49219;94257.33;;;;
2019/09/30 02:15:29;;;;;;;4.85;2.299999;;;;;;;17.67;61.49219;94257.33;;;;
2019/09/30 02:16:38;;;;;;;4.85;2.299999;;;;;;;17.67;61.49219;94257.33;;;;
2019/09/30 02:17:39;;;;;;;4.85;2.299999;;;;;;;17.67;61.49219;94257.33;;;;
2019/09/30 02:18:40;;;;;;;4.85;2.299999;;;;;;;17.67;61.49219;94257.33;;;;
2019/09/30 02:19:43;;;;;;;6.7;2.25;;;;;;;17.55;61.23438;94264.68;;;;
2019/09/30 02:20:44;;;;;;;6.7;2.25;;;;;;;17.55;61.23438;94264.68;;;;
2019/09/30 02:21:45;;;;;;;6.7;2.25;;;;;;;17.55;61.23438;94264.68;;;;
2019/09/30 02:22:46;;;;;;;4.399999;2.2;;;;;;;17.59;62.53906;94266.24;;;;
2019/09/30 02:23:48;;;;;;;4.399999;2.2;;;;;;;17.59;62.53906;94266.24;;;;
2019/09/30 02:24:50;;;;;;;4.399999;2.2;;;;;;;17.59;62.53906;94266.24;;;;
2019/09/30 02:25:51;;;;;;;4.149999;2.2;;;;;;;17.66;63.38867;94270.73;;;;
2019/09/30 02:26:52;;;;;;;4.149999;2.2;;;;;;;17.66;63.38867;94270.73;;;;
2019/09/30 02:27:54;;;;;;;5.799999;2;;;;;;;17.72;63.76855;94257.62;;;;
2019/09/30 02:28:55;;;;;;;5.799999;2;;;;;;;17.72;63.76855;94257.62;;;;
2019/09/30 02:29:56;;;;;;;5.799999;2;;;;;;;17.72;63.76855;94257.62;;;;
2019/09/30 02:30:57;;;;;;;5.799999;2;;;;;;;17.72;63.76855;94257.62;;;;
2019/09/30 02:31:58;;;;;;;5.799999;2;;;;;;;17.72;63.76855;94257.62;;;;
2019/09/30 02:33:00;;;;;;;5.799999;2;;;;;;;17.72;63.76855;94257.62;;;;
2019/09/30 02:34:01;;;;;;;5.799999;2;;;;;;;17.72;63.76855;94257.62;;;;
2019/09/30 02:35:02;;;;;;;5.799999;2;;;;;;;17.72;63.76855;94257.62;;;;
2019/09/30 02:36:04;;;;;;;5.799999;2;;;;;;;17.72;63.76855;94257.62;;;;
2019/09/30 02:37:08;;;;;;;5.799999;2;;;;;;;17.72;63.76855;94257.62;;;;
2019/09/30 02:38:09;;;;;;;4.7;2.35;;;;;;;17.51;62.83496;94291.36;;;;
2019/09/30 02:39:11;;;;;;;4.7;2.35;;;;;;;17.51;62.83496;94291.36;;;;
2019/09/30 02:40:12;;;;;;;4.7;2.35;;;;;;;17.51;62.83496;94291.36;;;;
2019/09/30 02:41:15;;;;;;;4.8;2.299999;;;;;;;17.52;63.96973;94288.87;;;;
2019/09/30 02:42:16;;;;;;;4.8;2.299999;;;;;;;17.52;63.96973;94288.87;;;;
2019/09/30 02:43:18;;;;;;;4.8;2.299999;;;;;;;17.52;63.96973;94288.87;;;;
2019/09/30 02:44:19;;;;;;;4.8;2.299999;;;;;;;17.52;63.96973;94288.87;;;;
2019/09/30 02:45:20;;;;;;;4.8;2.299999;;;;;;;17.52;63.96973;94288.87;;;;
2019/09/30 02:46:27;;;;;;;4.8;2.299999;;;;;;;17.52;63.96973;94288.87;;;;
2019/09/30 02:47:28;;;;;;;4.8;2.299999;;;;;;;17.52;63.96973;94288.87;;;;
2019/09/30 02:48:29;;;;;;;4.8;2.299999;;;;;;;17.52;63.96973;94288.87;;;;
2019/09/30 02:49:30;;;;;;;4.8;2.299999;;;;;;;17.52;63.96973;94288.87;;;;
2019/09/30 02:50:31;;;;;;;4.8;2.299999;;;;;;;17.52;63.96973;94288.87;;;;
2019/09/30 02:51:33;;;;;;;5.55;2;;;;;;;17.45;63.86035;94294.85;;;;
2019/09/30 02:52:34;;;;;;;5.55;2;;;;;;;17.45;63.86035;94294.85;;;;
2019/09/30 02:53:35;;;;;;;5.55;2;;;;;;;17.45;63.86035;94294.85;;;;
2019/09/30 02:54:36;;;;;;;4.749999;2.1;;;;;;;17.5;65.00293;94304.74;;;;
2019/09/30 02:55:37;;;;;;;4.749999;2.1;;;;;;;17.5;65.00293;94304.74;;;;
2019/09/30 02:56:39;;;;;;;4.749999;2.1;;;;;;;17.5;65.00293;94304.74;;;;
2019/09/30 02:57:40;;;;;;;4.749999;2.1;;;;;;;17.5;65.00293;94304.74;;;;
2019/09/30 02:58:41;;;;;;;4.749999;2.1;;;;;;;17.5;65.00293;94304.74;;;;
2019/09/30 02:59:42;;;;;;;4.749999;2.1;;;;;;;17.5;65.00293;94304.74;;;;
2019/09/30 03:00:43;;;;;;;4.749999;2.1;;;;;;;17.5;65.00293;94304.74;;;;
2019/09/30 03:01:48;;;;;;;4.749999;2.1;;;;;;;17.5;65.00293;94304.74;;;;
2019/09/30 03:02:49;;;;;;;4.749999;2.1;;;;;;;17.5;65.00293;94304.74;;;;
2019/09/30 03:03:50;;;;;;;4.749999;2.1;;;;;;;17.5;65.00293;94304.74;;;;
2019/09/30 03:04:51;;;;;;;2.5;1.9;;;;;;;17.47;64.29004;94301.26;;;;
2019/09/30 03:05:53;;;;;;;2.5;1.9;;;;;;;17.47;64.29004;94301.26;;;;
2019/09/30 03:06:54;;;;;;;2.5;1.9;;;;;;;17.47;64.29004;94301.26;;;;
2019/09/30 03:07:55;;;;;;;5.25;1.9;;;;;;;17.54;65.16113;94300.47;;;;
2019/09/30 03:08:56;;;;;;;5.25;1.9;;;;;;;17.54;65.16113;94300.47;;;;
2019/09/30 03:09:57;;;;;;;5.25;1.9;;;;;;;17.54;65.16113;94300.47;;;;
2019/09/30 03:10:58;;;;;;;5.25;1.9;;;;;;;17.54;65.16113;94300.47;;;;
2019/09/30 03:11:59;;;;;;;5.25;1.9;;;;;;;17.54;65.16113;94300.47;;;;
2019/09/30 03:13:01;;;;;;;5.25;1.9;;;;;;;17.54;65.16113;94300.47;;;;
2019/09/30 03:14:02;;;;;;;5.25;1.9;;;;;;;17.54;65.16113;94300.47;;;;
2019/09/30 03:15:03;;;;;;;5.25;1.9;;;;;;;17.54;65.16113;94300.47;;;;
2019/09/30 03:16:05;;;;;;;5.25;1.9;;;;;;;17.54;65.16113;94300.47;;;;
2019/09/30 03:17:06;;;;;;;5.25;1.9;;;;;;;17.54;65.16113;94300.47;;;;
2019/09/30 03:18:07;;;;;;;4.699999;1.8;;;;;;;17.47;64.42969;94320.5;;;;
2019/09/30 03:19:09;;;;;;;4.699999;1.8;;;;;;;17.47;64.42969;94320.5;;;;
2019/09/30 03:20:10;;;;;;;4.699999;1.8;;;;;;;17.47;64.42969;94320.5;;;;
2019/09/30 03:21:12;;;;;;;4.699999;1.8;;;;;;;17.47;64.42969;94320.5;;;;
2019/09/30 03:22:13;;;;;;;4.699999;1.8;;;;;;;17.47;64.42969;94320.5;;;;
2019/09/30 03:23:14;;;;;;;4.699999;1.8;;;;;;;17.47;64.42969;94320.5;;;;
2019/09/30 03:24:16;;;;;;;4.699999;1.8;;;;;;;17.47;64.42969;94320.5;;;;
2019/09/30 03:25:17;;;;;;;4.699999;1.8;;;;;;;17.47;64.42969;94320.5;;;;
2019/09/30 03:26:18;;;;;;;4.699999;1.8;;;;;;;17.47;64.42969;94320.5;;;;
2019/09/30 03:27:20;;;;;;;4.699999;1.8;;;;;;;17.47;64.42969;94320.5;;;;
2019/09/30 03:28:21;;;;;;;4.699999;1.8;;;;;;;17.47;64.42969;94320.5;;;;
2019/09/30 03:29:22;;;;;;;3.15;1.5;;;;;;;17.39;64.42969;94338.79;;;;
2019/09/30 03:30:23;;;;;;;3.15;1.5;;;;;;;17.39;64.42969;94338.79;;;;
2019/09/30 03:31:42;;;;;;;3.15;1.5;;;;;;;17.39;64.42969;94338.79;;;;
2019/09/30 03:32:44;;;;;;;3.15;1.5;;;;;;;17.39;64.42969;94338.79;;;;
2019/09/30 03:33:45;;;;;;;3.15;1.5;;;;;;;17.39;64.42969;94338.79;;;;
2019/09/30 03:34:46;;;;;;;3.15;1.5;;;;;;;17.39;64.42969;94338.79;;;;
2019/09/30 03:35:47;;;;;;;3.15;1.5;;;;;;;17.39;64.42969;94338.79;;;;
2019/09/30 03:36:48;;;;;;;3.15;1.5;;;;;;;17.39;64.42969;94338.79;;;;
2019/09/30 03:37:50;;;;;;;3.15;1.5;;;;;;;17.39;64.42969;94338.79;;;;
2019/09/30 03:38:51;;;;;;;3.15;1.5;;;;;;;17.39;64.42969;94338.79;;;;
2019/09/30 03:39:52;;;;;;;6.700001;1.7;;;;;;;17.27;64.48828;94350.89;;;;
2019/09/30 03:40:53;;;;;;;6.700001;1.7;;;;;;;17.27;64.48828;94350.89;;;;
2019/09/30 03:41:58;;;;;;;4.75;1.65;;;;;;;17.31;65.23535;94360.07;;;;
2019/09/30 03:42:59;;;;;;;4.75;1.65;;;;;;;17.31;65.23535;94360.07;;;;
2019/09/30 03:44:00;;;;;;;4.75;1.65;;;;;;;17.31;65.23535;94360.07;;;;
2019/09/30 03:45:01;;;;;;;4.75;1.65;;;;;;;17.31;65.23535;94360.07;;;;
2019/09/30 03:46:04;;;;;;;4.75;1.65;;;;;;;17.31;65.23535;94360.07;;;;
2019/09/30 03:47:05;;;;;;;4.75;1.65;;;;;;;17.31;65.23535;94360.07;;;;
2019/09/30 03:48:06;;;;;;;4.75;1.65;;;;;;;17.31;65.23535;94360.07;;;;
2019/09/30 03:49:07;;;;;;;4.75;1.65;;;;;;;17.31;65.23535;94360.07;;;;
2019/09/30 03:50:09;;;;;;;4.75;1.65;;;;;;;17.31;65.23535;94360.07;;;;
2019/09/30 03:51:11;;;;;;;4.75;1.65;;;;;;;17.31;65.23535;94360.07;;;;
2019/09/30 03:52:12;;;;;;;4.75;1.65;;;;;;;17.31;65.23535;94360.07;;;;
2019/09/30 03:53:13;;;;;;;2.55;1.5;;;;;;;17.22;64.31836;94380.42;;;;
2019/09/30 03:54:14;;;;;;;2.55;1.5;;;;;;;17.22;64.31836;94380.42;;;;
2019/09/30 03:55:15;;;;;;;2.55;1.5;;;;;;;17.22;64.31836;94380.42;;;;
2019/09/30 03:56:17;;;;;;;2.55;1.5;;;;;;;17.22;64.31836;94380.42;;;;
2019/09/30 03:57:18;;;;;;;2.55;1.5;;;;;;;17.22;64.31836;94380.42;;;;
2019/09/30 03:58:19;;;;;;;2.55;1.5;;;;;;;17.22;64.31836;94380.42;;;;
2019/09/30 03:59:21;;;;;;;2.55;1.5;;;;;;;17.22;64.31836;94380.42;;;;
2019/09/30 04:00:22;;;;;;;2.55;1.5;;;;;;;17.22;64.31836;94380.42;;;;
2019/09/30 04:01:30;;;;;;;2.55;1.5;;;;;;;17.22;64.31836;94380.42;;;;
2019/09/30 04:02:31;;;;;;;2.55;1.5;;;;;;;17.22;64.31836;94380.42;;;;
2019/09/30 04:03:32;;;;;;;2.7;1.45;;;;;;;17.1;64.54102;94379.13;;;;
2019/09/30 04:04:34;;;;;;;2.7;1.45;;;;;;;17.1;64.54102;94379.13;;;;
2019/09/30 04:05:35;;;;;;;2.7;1.45;;;;;;;17.1;64.54102;94379.13;;;;
2019/09/30 04:06:36;;;;;;;2.7;1.45;;;;;;;17.1;64.54102;94379.13;;;;
2019/09/30 04:07:38;;;;;;;2.7;1.45;;;;;;;17.1;64.54102;94379.13;;;;
2019/09/30 04:08:39;;;;;;;2.7;1.45;;;;;;;17.1;64.54102;94379.13;;;;
2019/09/30 04:09:40;;;;;;;2.7;1.45;;;;;;;17.1;64.54102;94379.13;;;;
2019/09/30 04:10:41;;;;;;;2.7;1.45;;;;;;;17.1;64.54102;94379.13;;;;
2019/09/30 04:11:43;;;;;;;2.7;1.45;;;;;;;17.1;64.54102;94379.13;;;;
2019/09/30 04:12:44;;;;;;;2.7;1.45;;;;;;;17.1;64.54102;94379.13;;;;
2019/09/30 04:13:45;;;;;;;2.65;1.35;;;;;;;16.89;64.3252;94395.58;;;;
2019/09/30 04:14:46;;;;;;;2.65;1.35;;;;;;;16.89;64.3252;94395.58;;;;
2019/09/30 04:15:47;;;;;;;2.65;1.35;;;;;;;16.89;64.3252;94395.58;;;;
2019/09/30 04:16:49;;;;;;;2.65;1.35;;;;;;;16.89;64.3252;94395.58;;;;
2019/09/30 04:17:50;;;;;;;2.65;1.35;;;;;;;16.89;64.3252;94395.58;;;;
2019/09/30 04:18:51;;;;;;;2.65;1.35;;;;;;;16.89;64.3252;94395.58;;;;
2019/09/30 04:19:53;;;;;;;2.65;1.35;;;;;;;16.89;64.3252;94395.58;;;;
2019/09/30 04:20:54;;;;;;;2.65;1.35;;;;;;;16.89;64.3252;94395.58;;;;
2019/09/30 04:21:56;;;;;;;2.65;1.35;;;;;;;16.89;64.3252;94395.58;;;;
2019/09/30 04:22:57;;;;;;;2.65;1.35;;;;;;;16.89;64.3252;94395.58;;;;
2019/09/30 04:23:58;;;;;;;2.65;1.35;;;;;;;16.89;64.3252;94395.58;;;;
2019/09/30 04:24:59;;;;;;;2.7;1.2;;;;;;;16.76;65.16699;94405.86;;;;
2019/09/30 04:26:01;;;;;;;2.7;1.2;;;;;;;16.76;65.16699;94405.86;;;;
2019/09/30 04:27:04;;;;;;;2.7;1.2;;;;;;;16.76;65.16699;94405.86;;;;
2019/09/30 04:28:05;;;;;;;2.7;1.2;;;;;;;16.76;65.16699;94405.86;;;;
2019/09/30 04:29:07;;;;;;;2.7;1.2;;;;;;;16.76;65.16699;94405.86;;;;
2019/09/30 04:30:08;;;;;;;2.7;1.2;;;;;;;16.76;65.16699;94405.86;;;;
2019/09/30 04:31:10;;;;;;;2.7;1.2;;;;;;;16.76;65.16699;94405.86;;;;
2019/09/30 04:32:11;;;;;;;2.7;1.2;;;;;;;16.76;65.16699;94405.86;;;;
2019/09/30 04:33:12;;;;;;;2.7;1.2;;;;;;;16.76;65.16699;94405.86;;;;
2019/09/30 04:34:13;;;;;;;2.7;1.2;;;;;;;16.76;65.16699;94405.86;;;;
2019/09/30 04:35:15;;;;;;;2.9;1.4;;;;;;;16.83;65.45996;94429.06;;;;
2019/09/30 04:36:22;;;;;;;2.9;1.4;;;;;;;16.83;65.45996;94429.06;;;;
2019/09/30 04:37:23;;;;;;;2.9;1.4;;;;;;;16.83;65.45996;94429.06;;;;
2019/09/30 04:38:24;;;;;;;2.9;1.4;;;;;;;16.83;65.45996;94429.06;;;;
2019/09/30 04:39:25;;;;;;;2.9;1.4;;;;;;;16.83;65.45996;94429.06;;;;
2019/09/30 04:40:27;;;;;;;2.9;1.4;;;;;;;16.83;65.45996;94429.06;;;;
2019/09/30 04:41:28;;;;;;;2.9;1.4;;;;;;;16.83;65.45996;94429.06;;;;
2019/09/30 04:42:29;;;;;;;2.9;1.4;;;;;;;16.83;65.45996;94429.06;;;;
2019/09/30 04:43:30;;;;;;;2.9;1.4;;;;;;;16.83;65.45996;94429.06;;;;
2019/09/30 04:44:32;;;;;;;2.9;1.4;;;;;;;16.83;65.45996;94429.06;;;;
2019/09/30 04:45:33;;;;;;;3.95;1.5;;;;;;;16.94;65.30176;94432.31;;;;
2019/09/30 04:46:35;;;;;;;3.95;1.5;;;;;;;16.94;65.30176;94432.31;;;;
2019/09/30 04:47:36;;;;;;;3.95;1.5;;;;;;;16.94;65.30176;94432.31;;;;
2019/09/30 04:48:37;;;;;;;3.95;1.5;;;;;;;16.94;65.30176;94432.31;;;;
2019/09/30 04:49:39;;;;;;;3.95;1.5;;;;;;;16.94;65.30176;94432.31;;;;
2019/09/30 04:50:40;;;;;;;3.95;1.5;;;;;;;16.94;65.30176;94432.31;;;;
2019/09/30 04:51:41;;;;;;;3.95;1.5;;;;;;;16.94;65.30176;94432.31;;;;
2019/09/30 04:52:43;;;;;;;3.95;1.5;;;;;;;16.94;65.30176;94432.31;;;;
2019/09/30 04:53:44;;;;;;;3.95;1.5;;;;;;;16.94;65.30176;94432.31;;;;
2019/09/30 04:54:45;;;;;;;3.95;1.5;;;;;;;16.94;65.30176;94432.31;;;;
2019/09/30 04:55:46;;;;;;;3.95;1.5;;;;;;;16.94;65.30176;94432.31;;;;
2019/09/30 04:56:47;;;;;;;4.7;1.2;;;;;;;16.9;65.91699;94459.91;;;;
2019/09/30 04:57:48;;;;;;;4.7;1.2;;;;;;;16.9;65.91699;94459.91;;;;
2019/09/30 04:58:49;;;;;;;4.7;1.2;;;;;;;16.9;65.91699;94459.91;;;;
2019/09/30 04:59:51;;;;;;;4.7;1.2;;;;;;;16.9;65.91699;94459.91;;;;
2019/09/30 05:00:52;;;;;;;4.7;1.2;;;;;;;16.9;65.91699;94459.91;;;;
2019/09/30 05:01:55;;;;;;;4.7;1.2;;;;;;;16.9;65.91699;94459.91;;;;
2019/09/30 05:02:56;;;;;;;4.7;1.2;;;;;;;16.9;65.91699;94459.91;;;;
2019/09/30 05:03:57;;;;;;;4.7;1.2;;;;;;;16.9;65.91699;94459.91;;;;
2019/09/30 05:04:59;;;;;;;4.7;1.2;;;;;;;16.9;65.91699;94459.91;;;;
2019/09/30 05:06:00;;;;;;;4.7;1.2;;;;;;;16.9;65.91699;94459.91;;;;
2019/09/30 05:07:01;;;;;;;2;1.1;;;;;;;17.02;66.09668;94457.12;;;;
2019/09/30 05:08:02;;;;;;;2;1.1;;;;;;;17.02;66.09668;94457.12;;;;
2019/09/30 05:09:05;;;;;;;2;1.1;;;;;;;17.02;66.09668;94457.12;;;;
2019/09/30 05:10:07;;;;;;;2;1.1;;;;;;;17.02;66.09668;94457.12;;;;
2019/09/30 05:11:09;;;;;;;2;1.1;;;;;;;17.02;66.09668;94457.12;;;;
2019/09/30 05:12:10;;;;;;;2;1.1;;;;;;;17.02;66.09668;94457.12;;;;
2019/09/30 05:13:11;;;;;;;2;1.1;;;;;;;17.02;66.09668;94457.12;;;;
2019/09/30 05:14:12;;;;;;;2;1.1;;;;;;;17.02;66.09668;94457.12;;;;
2019/09/30 05:15:14;;;;;;;2;1.1;;;;;;;17.02;66.09668;94457.12;;;;
2019/09/30 05:16:15;;;;;;;2;1.1;;;;;;;17.02;66.09668;94457.12;;;;
2019/09/30 05:17:16;;;;;;;2.3;1.15;;;;;;;17.2;66.05859;94488.08;;;;
2019/09/30 05:18:18;;;;;;;2.3;1.15;;;;;;;17.2;66.05859;94488.08;;;;
2019/09/30 05:19:19;;;;;;;2.3;1.15;;;;;;;17.2;66.05859;94488.08;;;;
2019/09/30 05:20:20;;;;;;;2.3;1.15;;;;;;;17.2;66.05859;94488.08;;;;
2019/09/30 05:21:22;;;;;;;2.3;1.15;;;;;;;17.2;66.05859;94488.08;;;;
2019/09/30 05:22:23;;;;;;;2.3;1.15;;;;;;;17.2;66.05859;94488.08;;;;
2019/09/30 05:23:24;;;;;;;2.3;1.15;;;;;;;17.2;66.05859;94488.08;;;;
2019/09/30 05:24:25;;;;;;;2.3;1.15;;;;;;;17.2;66.05859;94488.08;;;;
2019/09/30 05:25:26;;;;;;;2.3;1.15;;;;;;;17.2;66.05859;94488.08;;;;
2019/09/30 05:26:28;;;;;;;2.3;1.15;;;;;;;17.2;66.05859;94488.08;;;;
2019/09/30 05:27:29;;;;;;;2.3;1.15;;;;;;;17.2;66.05859;94488.08;;;;
2019/09/30 05:28:31;;;;;;;4.05;1.2;;;;;;;17.37;65.99707;94492.47;;;;
2019/09/30 05:29:32;;;;;;;4.05;1.2;;;;;;;17.37;65.99707;94492.47;;;;
2019/09/30 05:30:33;;;;;;;4.05;1.2;;;;;;;17.37;65.99707;94492.47;;;;
2019/09/30 05:31:36;;;;;;;4.05;1.2;;;;;;;17.37;65.99707;94492.47;;;;
2019/09/30 05:32:37;;;;;;;4.05;1.2;;;;;;;17.37;65.99707;94492.47;;;;
2019/09/30 05:33:39;;;;;;;4.05;1.2;;;;;;;17.37;65.99707;94492.47;;;;
2019/09/30 05:34:40;;;;;;;4.05;1.2;;;;;;;17.37;65.99707;94492.47;;;;
2019/09/30 05:35:41;;;;;;;4.05;1.2;;;;;;;17.37;65.99707;94492.47;;;;
2019/09/30 05:36:43;;;;;;;4.05;1.2;;;;;;;17.37;65.99707;94492.47;;;;
2019/09/30 05:37:44;;;;;;;4.05;1.2;;;;;;;17.37;65.99707;94492.47;;;;
2019/09/30 05:38:45;;;;;;;2.3;1.1;;;;;;;17.35;66.17871;94515.69;;;;
2019/09/30 05:39:46;;;;;;;2.3;1.1;;;;;;;17.35;66.17871;94515.69;;;;
2019/09/30 05:40:47;;;;;;;2.3;1.1;;;;;;;17.35;66.17871;94515.69;;;;
2019/09/30 05:41:49;;;;;;;2.3;1.1;;;;;;;17.35;66.17871;94515.69;;;;
2019/09/30 05:42:51;;;;;;;2.3;1.1;;;;;;;17.35;66.17871;94515.69;;;;
2019/09/30 05:43:52;;;;;;;2.3;1.1;;;;;;;17.35;66.17871;94515.69;;;;
2019/09/30 05:44:53;;;;;;;2.3;1.1;;;;;;;17.35;66.17871;94515.69;;;;
2019/09/30 05:45:54;;;;;;;2.3;1.1;;;;;;;17.35;66.17871;94515.69;;;;
2019/09/30 05:46:56;;;;;;;2.3;1.1;;;;;;;17.35;66.17871;94515.69;;;;
2019/09/30 05:47:57;;;;;;;2.3;1.1;;;;;;;17.35;66.17871;94515.69;;;;
2019/09/30 05:48:58;;;;;;;3.65;1.05;;;;;;;17.27;67.2334;94547.34;;;;
2019/09/30 05:49:59;;;;;;;3.65;1.05;;;;;;;17.27;67.2334;94547.34;;;;
2019/09/30 05:51:01;;;;;;;3.65;1.05;;;;;;;17.27;67.2334;94547.34;;;;
2019/09/30 05:52:02;;;;;;;3.65;1.05;;;;;;;17.27;67.2334;94547.34;;;;
2019/09/30 05:53:03;;;;;;;3.65;1.05;;;;;;;17.27;67.2334;94547.34;;;;
2019/09/30 05:54:05;;;;;;;3.65;1.05;;;;;;;17.27;67.2334;94547.34;;;;
2019/09/30 05:55:14;;;;;;;3.65;1.05;;;;;;;17.27;67.2334;94547.34;;;;